Terminal Aerodrome Forecast
Issued by NWS

Home | Current Version | Previous Version | Text Only | Print | Product List | Glossary On
Versions: 1 2 3 4 5 6 7 8 9 10 11 12 13 14 15 16 17
000
FTUS44 KLIX 300532
TAFMCB
TAF
KMCB 300532Z 3006/0106 21007KT P6SM SCT040 BKN120 BKN250
     FM301430 27011G19KT P6SM FEW025 SCT150
     FM301900 28011G19KT P6SM VCTS BKN040CB BKN200
     FM010030 VRB06KT P6SM SCT050 SCT200=

USA.gov is the U.S. government's official web portal to all federal, state and local government web resources and services.